Time;durP1;ratioP1;P1;durP2;ratioP2;P2;SDS_P1;SDS_P2;PMS_P1;PMS_P2;Temp;Humidity;BMP_temperature;BMP_pressure;BME280_temperature;BME280_humidity;BME280_pressure;Samples;Min_cycle;Max_cycle;Signal;HPM_P1;HPM_P2
2023/10/04 00:01:26;;;;;;;13.43;5.25;;;13.00;99.90;;;;;;5081810;28;20517;-74
2023/10/04 00:04:14;;;;;;;10.50;5.18;;;13.10;99.90;;;;;;5083348;28;20775;-74
2023/10/04 00:07:04;;;;;;;9.57;4.80;;;13.00;99.90;;;;;;5067265;28;20075;-74
2023/10/04 00:09:50;;;;;;;13.15;5.97;;;13.00;99.90;;;;;;5085441;28;20084;-74
2023/10/04 00:12:36;;;;;;;11.43;5.93;;;13.00;99.90;;;;;;5077231;28;20093;-74
2023/10/04 00:15:25;;;;;;;10.38;4.80;;;13.00;99.90;;;;;;5070372;28;20043;-74
2023/10/04 00:18:11;;;;;;;9.70;5.10;;;13.10;99.90;;;;;;5083256;28;20480;-74
2023/10/04 00:20:57;;;;;;;12.55;5.55;;;13.10;99.90;;;;;;5063018;28;20077;-74
2023/10/04 00:23:43;;;;;;;9.55;5.35;;;13.10;99.90;;;;;;5090484;28;20398;-74
2023/10/04 00:26:30;;;;;;;17.75;5.88;;;13.10;99.90;;;;;;5076483;28;20430;-74
2023/10/04 00:29:18;;;;;;;10.65;6.15;;;13.10;99.90;;;;;;5091773;28;20070;-74
2023/10/04 00:32:04;;;;;;;13.05;4.95;;;13.10;99.90;;;;;;5097400;28;20048;-73
2023/10/04 00:34:51;;;;;;;10.77;5.35;;;13.10;99.90;;;;;;5079492;28;20042;-74
2023/10/04 00:37:37;;;;;;;10.88;5.20;;;13.10;99.90;;;;;;5091239;27;20099;-74
2023/10/04 00:40:25;;;;;;;12.68;5.20;;;13.10;99.90;;;;;;5091597;27;20076;-74
2023/10/04 00:43:19;;;;;;;12.40;5.05;;;13.00;99.90;;;;;;5068927;28;20468;-74
2023/10/04 00:46:05;;;;;;;11.57;5.45;;;13.10;99.90;;;;;;5087812;28;20040;-74
2023/10/04 00:48:53;;;;;;;12.52;4.55;;;13.10;99.90;;;;;;5099576;27;20076;-74
2023/10/04 00:51:40;;;;;;;12.30;5.53;;;13.10;99.90;;;;;;5067359;28;20059;-74
2023/10/04 00:54:26;;;;;;;11.15;4.88;;;13.00;99.90;;;;;;5082418;28;20035;-74
2023/10/04 00:57:13;;;;;;;11.18;4.70;;;13.00;99.90;;;;;;5081557;27;20040;-74
2023/10/04 00:59:59;;;;;;;11.63;4.67;;;13.00;99.90;;;;;;5072716;28;20451;-74
2023/10/04 01:02:46;;;;;;;13.10;4.57;;;13.00;99.90;;;;;;5084421;27;21052;-73
2023/10/04 01:05:32;;;;;;;12.45;4.88;;;13.10;99.90;;;;;;5100054;28;20069;-74
2023/10/04 01:08:21;;;;;;;12.43;5.50;;;13.10;99.90;;;;;;5083484;27;20039;-73
2023/10/04 01:11:07;;;;;;;12.73;5.28;;;13.10;99.90;;;;;;5078027;28;20043;-73
2023/10/04 01:14:05;;;;;;;10.88;4.30;;;13.10;99.90;;;;;;5094845;27;20040;-73
2023/10/04 01:16:52;;;;;;;12.85;4.72;;;13.10;99.90;;;;;;5082820;27;20047;-74
2023/10/04 01:19:38;;;;;;;10.00;5.22;;;13.00;99.90;;;;;;5085393;28;20136;-74
2023/10/04 01:22:24;;;;;;;13.07;4.60;;;13.00;99.90;;;;;;5097337;27;20039;-74
2023/10/04 01:25:12;;;;;;;9.93;4.38;;;13.00;99.90;;;;;;5081329;28;20035;-74
2023/10/04 01:27:59;;;;;;;11.05;4.20;;;13.00;99.90;;;;;;5070530;28;20383;-74
2023/10/04 01:30:50;;;;;;;17.52;4.63;;;13.00;99.90;;;;;;5077054;28;20035;-74
2023/10/04 01:33:37;;;;;;;8.82;4.00;;;13.00;99.90;;;;;;5086104;28;20511;-74
2023/10/04 01:36:23;;;;;;;12.60;4.55;;;13.00;99.90;;;;;;5072172;27;20043;-74
2023/10/04 01:39:18;;;;;;;13.10;5.20;;;13.00;99.90;;;;;;5085843;28;20333;-73
2023/10/04 01:42:04;;;;;;;13.90;4.03;;;13.10;99.90;;;;;;5070300;28;20075;-74
2023/10/04 01:44:50;;;;;;;9.10;4.20;;;13.00;99.90;;;;;;5089233;28;20050;-74
2023/10/04 01:47:36;;;;;;;10.05;3.72;;;13.00;99.90;;;;;;5096043;27;20051;-74
2023/10/04 01:50:21;;;;;;;6.13;3.00;;;13.10;99.90;;;;;;5085919;27;20105;-74
2023/10/04 01:53:08;;;;;;;11.88;4.15;;;13.00;99.90;;;;;;5095929;28;20049;-74
2023/10/04 01:55:54;;;;;;;8.77;3.15;;;13.00;99.90;;;;;;5083248;27;20039;-74
2023/10/04 01:58:41;;;;;;;8.55;3.47;;;13.00;99.90;;;;;;5083889;28;20392;-73
2023/10/04 02:01:27;;;;;;;10.25;3.40;;;13.00;99.90;;;;;;5082868;27;20043;-74
2023/10/04 02:04:13;;;;;;;9.63;3.55;;;13.00;99.90;;;;;;5080898;27;20473;-73
2023/10/04 02:06:59;;;;;;;11.23;2.88;;;13.00;99.90;;;;;;5082465;28;20185;-74
2023/10/04 02:09:47;;;;;;;6.75;3.25;;;13.00;99.90;;;;;;5069396;28;20150;-74
2023/10/04 02:12:33;;;;;;;8.50;3.35;;;13.10;99.90;;;;;;5082831;28;20116;-74
2023/10/04 02:15:19;;;;;;;12.82;3.28;;;13.00;99.90;;;;;;5087104;27;20043;-74
2023/10/04 02:18:05;;;;;;;10.75;2.80;;;13.00;99.90;;;;;;5079834;28;20051;-74
2023/10/04 02:20:53;;;;;;;6.30;2.50;;;13.00;99.90;;;;;;5064290;28;20054;-74
2023/10/04 02:23:39;;;;;;;9.60;3.30;;;13.00;99.90;;;;;;5090183;27;20051;-74
2023/10/04 02:26:25;;;;;;;7.35;3.05;;;13.00;99.90;;;;;;5083956;28;20127;-74
2023/10/04 02:29:12;;;;;;;11.70;3.45;;;13.00;99.90;;;;;;5095248;27;20102;-74
2023/10/04 02:31:57;;;;;;;8.55;3.30;;;13.00;99.90;;;;;;5064940;28;20113;-74
2023/10/04 02:34:43;;;;;;;8.25;2.90;;;13.00;99.90;;;;;;5079827;28;20043;-74
2023/10/04 02:37:30;;;;;;;8.52;2.72;;;13.00;99.90;;;;;;5068401;28;20035;-74
2023/10/04 02:40:16;;;;;;;14.50;3.55;;;13.00;99.90;;;;;;5066885;28;20040;-74
2023/10/04 02:43:04;;;;;;;8.90;2.70;;;13.10;99.90;;;;;;5071839;27;20510;-74
2023/10/04 02:45:52;;;;;;;9.60;3.37;;;13.00;99.90;;;;;;5098206;28;20055;-73
2023/10/04 02:48:38;;;;;;;10.18;2.95;;;13.00;99.90;;;;;;5084840;27;20103;-74
2023/10/04 02:51:24;;;;;;;10.38;3.38;;;13.00;99.90;;;;;;5062298;28;20363;-74
2023/10/04 02:54:10;;;;;;;11.82;3.05;;;13.10;99.90;;;;;;5068037;28;20315;-74
2023/10/04 02:56:56;;;;;;;15.57;3.30;;;13.10;99.90;;;;;;5097322;27;20043;-74
2023/10/04 02:59:44;;;;;;;8.98;3.00;;;13.10;99.90;;;;;;5082452;28;20039;-74
2023/10/04 03:02:30;;;;;;;12.55;3.40;;;13.20;99.90;;;;;;5080169;27;20509;-74
2023/10/04 03:05:18;;;;;;;12.38;3.28;;;13.20;99.90;;;;;;5057078;28;20047;-74
2023/10/04 03:08:08;;;;;;;7.28;2.88;;;13.20;99.90;;;;;;5070819;28;20105;-74
2023/10/04 03:10:55;;;;;;;8.70;2.75;;;13.20;99.90;;;;;;5061974;27;20135;-74
2023/10/04 03:13:41;;;;;;;9.48;2.70;;;13.30;99.90;;;;;;5096201;28;20059;-74
2023/10/04 03:16:28;;;;;;;7.97;2.70;;;13.20;99.90;;;;;;5095502;28;20108;-76
2023/10/04 03:19:16;;;;;;;10.90;4.20;;;13.20;99.90;;;;;;5093789;28;20067;-76
2023/10/04 03:22:04;;;;;;;9.57;3.00;;;13.20;99.90;;;;;;5090626;27;20188;-76
2023/10/04 03:24:50;;;;;;;9.93;2.78;;;13.20;99.90;;;;;;5077745;27;20044;-76
2023/10/04 03:27:37;;;;;;;8.45;3.55;;;13.20;99.90;;;;;;5066785;28;20519;-76
2023/10/04 03:30:23;;;;;;;7.03;2.92;;;13.20;99.90;;;;;;5082289;28;20108;-77
2023/10/04 03:33:09;;;;;;;14.43;4.25;;;13.20;99.90;;;;;;5096491;28;20047;-76
2023/10/04 03:35:58;;;;;;;12.27;3.20;;;13.20;99.90;;;;;;5098648;28;20475;-76
2023/10/04 03:38:45;;;;;;;9.30;3.30;;;13.20;99.90;;;;;;5091917;28;20085;-76
2023/10/04 03:41:31;;;;;;;9.23;3.40;;;13.20;99.90;;;;;;5104028;28;20043;-76
2023/10/04 03:44:18;;;;;;;8.80;3.00;;;13.30;99.90;;;;;;5077829;28;20394;-76
2023/10/04 03:47:04;;;;;;;9.57;3.80;;;13.30;99.90;;;;;;5067347;28;20109;-76
2023/10/04 03:49:50;;;;;;;8.80;3.70;;;13.20;99.90;;;;;;5071663;28;20051;-76
2023/10/04 03:52:36;;;;;;;10.57;3.30;;;13.30;99.90;;;;;;5087704;28;20043;-76
2023/10/04 03:55:26;;;;;;;11.55;3.70;;;13.30;99.90;;;;;;5090511;28;20047;-76
2023/10/04 03:58:12;;;;;;;12.43;3.58;;;13.30;99.90;;;;;;5090053;28;20032;-76
2023/10/04 04:00:58;;;;;;;11.80;3.20;;;13.30;99.90;;;;;;5066130;28;20040;-76
2023/10/04 04:03:44;;;;;;;11.82;3.70;;;13.30;99.90;;;;;;5066349;28;20119;-76
2023/10/04 04:06:30;;;;;;;10.25;3.55;;;13.30;99.90;;;;;;5097117;28;20067;-76
2023/10/04 04:09:17;;;;;;;11.90;3.40;;;13.30;99.90;;;;;;5081066;28;20123;-76
2023/10/04 04:12:03;;;;;;;12.20;3.55;;;13.30;99.90;;;;;;5068133;28;20197;-77
2023/10/04 04:14:53;;;;;;;14.60;4.28;;;13.30;99.90;;;;;;5073134;28;20047;-76
2023/10/04 04:17:42;;;;;;;13.30;3.80;;;13.30;99.90;;;;;;5086755;27;20043;-76
2023/10/04 04:20:30;;;;;;;8.02;3.40;;;13.30;99.90;;;;;;5084842;28;20069;-76
2023/10/04 04:23:16;;;;;;;13.38;3.95;;;13.30;99.90;;;;;;5099741;28;20070;-76
2023/10/04 04:26:07;;;;;;;12.60;3.65;;;13.30;99.90;;;;;;5084113;28;20217;-76
2023/10/04 04:28:55;;;;;;;9.30;3.70;;;13.30;99.90;;;;;;5087992;27;20548;-76
2023/10/04 04:31:40;;;;;;;8.88;3.38;;;13.30;99.90;;;;;;5073128;28;20036;-76
2023/10/04 04:34:28;;;;;;;10.77;3.72;;;13.30;99.90;;;;;;5111147;27;20500;-76
2023/10/04 04:37:14;;;;;;;11.15;3.70;;;13.30;99.90;;;;;;5077999;27;20403;-76
2023/10/04 04:40:00;;;;;;;13.10;5.05;;;13.30;99.90;;;;;;5070306;28;20040;-76
2023/10/04 04:42:47;;;;;;;10.48;3.97;;;13.30;99.90;;;;;;5085771;27;20043;-77
2023/10/04 04:45:34;;;;;;;11.82;3.83;;;13.20;99.90;;;;;;5081645;28;20047;-77
2023/10/04 04:48:24;;;;;;;12.32;3.72;;;13.30;99.90;;;;;;5100637;28;20082;-77
2023/10/04 04:51:11;;;;;;;9.63;3.60;;;13.30;99.90;;;;;;5086924;27;20380;-77
2023/10/04 04:53:57;;;;;;;12.35;3.60;;;13.20;99.90;;;;;;5104261;27;20137;-77
2023/10/04 04:56:43;;;;;;;9.65;3.40;;;13.20;99.90;;;;;;5101631;27;20027;-77
2023/10/04 04:59:29;;;;;;;9.38;3.25;;;13.20;99.90;;;;;;5075469;28;20093;-77
2023/10/04 05:02:15;;;;;;;16.65;3.88;;;13.20;99.90;;;;;;5067994;28;20046;-77
2023/10/04 05:05:02;;;;;;;8.38;3.20;;;13.20;99.90;;;;;;5076263;27;20035;-77
2023/10/04 05:07:48;;;;;;;19.70;4.22;;;13.20;99.90;;;;;;5072503;28;20638;-77
2023/10/04 05:10:38;;;;;;;7.53;3.15;;;13.20;99.90;;;;;;5088037;27;20077;-77
2023/10/04 05:13:24;;;;;;;12.68;4.03;;;13.10;99.90;;;;;;5065288;28;20548;-77
2023/10/04 05:16:10;;;;;;;9.55;3.55;;;13.10;99.90;;;;;;5085739;27;20039;-77
2023/10/04 05:18:56;;;;;;;11.50;3.95;;;13.10;99.90;;;;;;5085526;28;20468;-77
2023/10/04 05:21:42;;;;;;;9.02;3.88;;;13.10;99.90;;;;;;5083175;28;20274;-77
2023/10/04 05:24:28;;;;;;;14.82;4.75;;;13.10;99.90;;;;;;5098486;27;20039;-77
2023/10/04 05:27:14;;;;;;;15.75;4.70;;;13.10;99.90;;;;;;5065496;28;20068;-77
2023/10/04 05:30:01;;;;;;;8.00;3.63;;;13.10;99.90;;;;;;5086788;27;20101;-77
2023/10/04 05:32:47;;;;;;;11.63;4.40;;;13.10;99.90;;;;;;5073151;28;20160;-77
2023/10/04 05:35:36;;;;;;;12.45;4.63;;;13.00;99.90;;;;;;5064804;28;20048;-77
2023/10/04 05:38:23;;;;;;;8.95;4.60;;;13.00;99.90;;;;;;5077767;28;20044;-77
2023/10/04 05:41:09;;;;;;;13.38;5.22;;;13.00;99.90;;;;;;5100090;28;20035;-77
2023/10/04 05:43:55;;;;;;;15.00;4.85;;;13.10;99.90;;;;;;5087173;27;20039;-77
2023/10/04 05:46:44;;;;;;;15.48;4.95;;;13.00;99.90;;;;;;5079237;28;20131;-77
2023/10/04 05:49:31;;;;;;;17.88;5.28;;;13.00;99.90;;;;;;5113299;27;20040;-77
2023/10/04 05:52:18;;;;;;;11.00;5.28;;;13.00;99.90;;;;;;5063188;28;20035;-77
2023/10/04 05:55:04;;;;;;;10.90;4.90;;;13.00;99.90;;;;;;5098489;28;20413;-77
2023/10/04 05:57:50;;;;;;;14.90;4.80;;;13.00;99.90;;;;;;5098482;27;20035;-77
2023/10/04 06:00:42;;;;;;;11.75;4.93;;;13.00;99.90;;;;;;5065390;28;20406;-77
2023/10/04 06:03:29;;;;;;;13.75;4.82;;;13.00;99.90;;;;;;5068691;27;20500;-77
2023/10/04 06:06:15;;;;;;;13.88;5.40;;;13.10;99.90;;;;;;5065393;28;20512;-77
2023/10/04 06:09:03;;;;;;;12.55;5.05;;;13.00;99.90;;;;;;5108564;27;20040;-77
2023/10/04 06:11:49;;;;;;;15.38;5.97;;;13.00;99.90;;;;;;5075111;27;20499;-76
2023/10/04 06:14:36;;;;;;;15.38;5.72;;;13.00;99.90;;;;;;5081589;28;20391;-77
2023/10/04 06:17:23;;;;;;;17.10;5.57;;;13.00;99.90;;;;;;5083262;28;20177;-77
2023/10/04 06:20:36;;;;;;;14.90;5.55;;;13.00;99.90;;;;;;5078819;28;20042;-77
2023/10/04 06:23:19;;;;;;;13.60;5.32;;;13.00;99.90;;;;;;5089677;27;20039;-77
2023/10/04 06:26:05;;;;;;;17.63;5.85;;;13.00;99.90;;;;;;5095802;28;20113;-77
2023/10/04 06:28:51;;;;;;;12.38;5.85;;;13.00;99.90;;;;;;5095773;27;20035;-77
2023/10/04 06:31:37;;;;;;;14.13;5.50;;;13.00;99.90;;;;;;5063203;27;20527;-75
2023/10/04 06:34:23;;;;;;;10.50;5.18;;;13.00;99.90;;;;;;5081448;28;20047;-77
2023/10/04 06:37:09;;;;;;;16.60;6.40;;;13.00;99.90;;;;;;5087554;27;20065;-77
2023/10/04 06:39:55;;;;;;;13.40;5.70;;;13.10;99.90;;;;;;5077474;28;20032;-77
2023/10/04 06:42:48;;;;;;;11.35;5.63;;;13.10;99.90;;;;;;5084961;27;20040;-77
2023/10/04 06:45:35;;;;;;;15.55;5.78;;;13.10;99.90;;;;;;5092115;28;20044;-77
2023/10/04 06:48:21;;;;;;;17.80;6.28;;;13.00;99.90;;;;;;5065079;28;20053;-77
2023/10/04 06:51:07;;;;;;;15.75;6.70;;;13.10;99.90;;;;;;5076915;27;20054;-77
2023/10/04 06:53:53;;;;;;;14.30;6.05;;;13.10;99.90;;;;;;5083406;28;20128;-77
2023/10/04 06:56:39;;;;;;;11.18;6.18;;;13.10;99.90;;;;;;5114582;27;20528;-77
2023/10/04 06:59:25;;;;;;;17.80;6.47;;;13.10;99.90;;;;;;5098481;28;20416;-77
2023/10/04 07:02:11;;;;;;;14.65;6.28;;;13.10;99.90;;;;;;5075475;28;20035;-77
2023/10/04 07:04:57;;;;;;;14.82;7.50;;;13.10;99.90;;;;;;5072194;28;20079;-77
2023/10/04 07:07:44;;;;;;;17.23;6.95;;;13.10;99.90;;;;;;5094509;28;20790;-77
2023/10/04 07:10:31;;;;;;;13.05;6.93;;;13.10;99.90;;;;;;5070055;28;20127;-77
2023/10/04 07:13:17;;;;;;;11.68;6.28;;;13.20;99.90;;;;;;5068766;28;20043;-77
2023/10/04 07:16:03;;;;;;;18.58;9.27;;;13.10;99.90;;;;;;5083442;28;20044;-77
2023/10/04 07:18:49;;;;;;;28.67;7.30;;;13.20;99.90;;;;;;5087748;27;20476;-77
2023/10/04 07:21:35;;;;;;;12.82;6.60;;;13.20;99.90;;;;;;5064216;28;20040;-77
2023/10/04 07:24:21;;;;;;;10.75;6.00;;;13.30;99.90;;;;;;5069471;27;20129;-77
2023/10/04 07:27:07;;;;;;;13.65;6.10;;;13.30;99.90;;;;;;5066547;28;20052;-77
2023/10/04 07:29:53;;;;;;;16.60;6.05;;;13.40;99.90;;;;;;5077193;28;20059;-77
2023/10/04 07:32:43;;;;;;;14.10;5.57;;;13.40;99.90;;;;;;5105582;27;20047;-77
2023/10/04 07:35:30;;;;;;;11.23;5.45;;;13.50;99.90;;;;;;5063200;28;20042;-77
2023/10/04 07:38:16;;;;;;;12.80;5.95;;;13.50;99.90;;;;;;5064658;27;20047;-77
2023/10/04 07:41:02;;;;;;;12.50;6.28;;;13.50;99.90;;;;;;5089735;28;20032;-77
2023/10/04 07:43:48;;;;;;;14.55;6.05;;;13.60;99.90;;;;;;5095427;28;20100;-77
2023/10/04 07:46:34;;;;;;;12.65;5.32;;;13.60;99.90;;;;;;5076724;28;20345;-77
2023/10/04 07:49:21;;;;;;;14.02;5.60;;;13.60;99.90;;;;;;5082359;28;20443;-77
2023/10/04 07:52:07;;;;;;;15.77;6.18;;;13.70;99.90;;;;;;5095693;28;20031;-77
2023/10/04 07:54:54;;;;;;;14.60;5.43;;;13.70;99.90;;;;;;5109504;28;20035;-77
2023/10/04 07:57:47;;;;;;;13.60;5.07;;;13.70;99.90;;;;;;5085878;28;20176;-76
2023/10/04 08:00:36;;;;;;;15.52;5.38;;;13.80;99.90;;;;;;5096638;28;20062;-77
2023/10/04 08:03:23;;;;;;;14.35;5.72;;;13.80;99.90;;;;;;5093024;28;20349;-77
2023/10/04 08:06:11;;;;;;;11.55;5.18;;;13.90;99.90;;;;;;5075448;28;20040;-77
2023/10/04 08:08:57;;;;;;;14.93;5.10;;;13.90;99.90;;;;;;5089052;28;20096;-77
2023/10/04 08:11:43;;;;;;;15.30;5.30;;;14.00;99.90;;;;;;5074765;28;20067;-77
2023/10/04 08:14:31;;;;;;;11.10;4.57;;;14.00;99.90;;;;;;5078216;28;20483;-77
2023/10/04 08:17:17;;;;;;;11.88;5.22;;;14.10;99.90;;;;;;5081194;28;20046;-77
2023/10/04 08:20:04;;;;;;;14.70;5.00;;;14.20;99.90;;;;;;5062317;28;20044;-77
2023/10/04 08:22:50;;;;;;;10.00;4.97;;;14.20;99.90;;;;;;5108740;28;20050;-77
2023/10/04 08:25:37;;;;;;;10.45;4.80;;;14.30;99.90;;;;;;5084796;28;20043;-77
2023/10/04 08:28:23;;;;;;;14.60;4.95;;;14.30;99.90;;;;;;5097150;28;20116;-76
2023/10/04 08:31:11;;;;;;;10.95;4.53;;;14.40;99.90;;;;;;5071342;28;20100;-77
2023/10/04 08:33:56;;;;;;;14.23;5.55;;;14.40;99.90;;;;;;5082876;28;20043;-77
2023/10/04 08:36:42;;;;;;;12.07;5.57;;;14.40;99.90;;;;;;5066224;28;20455;-77
2023/10/04 08:39:29;;;;;;;17.92;6.15;;;14.40;99.90;;;;;;5085373;28;20043;-77
2023/10/04 08:42:16;;;;;;;14.02;5.03;;;14.30;99.90;;;;;;5096893;28;20105;-77
2023/10/04 08:45:02;;;;;;;18.02;5.40;;;14.40;99.90;;;;;;5091490;28;20035;-74
2023/10/04 08:47:55;;;;;;;19.55;6.90;;;14.40;99.90;;;;;;5092507;28;20055;-77
2023/10/04 08:50:44;;;;;;;15.10;5.95;;;14.40;99.90;;;;;;5071508;28;20055;-74
2023/10/04 08:54:02;;;;;;;15.35;5.93;;;14.40;99.90;;;;;;5090405;28;20126;-75
2023/10/04 08:56:51;;;;;;;12.98;5.65;;;14.40;99.90;;;;;;5085106;27;20037;-77
2023/10/04 08:59:37;;;;;;;14.02;5.45;;;14.40;99.90;;;;;;5097768;28;20093;-77
2023/10/04 09:02:23;;;;;;;13.48;5.82;;;14.50;99.90;;;;;;5074117;27;20039;-77
2023/10/04 09:05:11;;;;;;;13.48;5.60;;;14.50;99.90;;;;;;5060185;28;20484;-77
2023/10/04 09:07:57;;;;;;;15.35;5.78;;;14.50;99.90;;;;;;5076040;28;20040;-76
2023/10/04 09:10:43;;;;;;;15.80;7.63;;;14.50;99.90;;;;;;5073763;27;20039;-77
2023/10/04 09:13:29;;;;;;;11.55;5.63;;;14.50;99.90;;;;;;5079887;28;20051;-77
2023/10/04 09:16:24;;;;;;;11.95;6.30;;;14.60;99.90;;;;;;5100778;27;20490;-77
2023/10/04 09:19:18;;;;;;;11.57;5.97;;;14.60;99.90;;;;;;5066321;28;20067;-77
2023/10/04 09:22:07;;;;;;;12.77;6.25;;;14.60;99.90;;;;;;5099663;27;20035;-77
2023/10/04 09:24:54;;;;;;;14.00;6.50;;;14.60;99.90;;;;;;5081830;28;20044;-77
2023/10/04 09:27:41;;;;;;;15.60;5.45;;;14.60;99.90;;;;;;5068002;28;20480;-77
2023/10/04 09:30:28;;;;;;;12.73;5.15;;;14.70;99.90;;;;;;5089050;28;20061;-77
2023/10/04 09:33:28;;;;;;;15.10;5.30;;;14.90;99.90;;;;;;5098637;28;20043;-77
2023/10/04 09:36:31;;;;;;;12.93;5.15;;;14.90;99.90;;;;;;5081625;27;20115;-77
2023/10/04 09:39:23;;;;;;;13.48;5.57;;;15.10;99.90;;;;;;5068996;28;20031;-77
2023/10/04 09:42:13;;;;;;;10.40;5.93;;;15.10;99.90;;;;;;5074106;27;20333;-77
2023/10/04 09:45:07;;;;;;;11.95;5.63;;;15.20;99.90;;;;;;5085818;28;20480;-77
2023/10/04 09:47:53;;;;;;;9.82;4.40;;;15.50;99.90;;;;;;5081725;27;20043;-77
2023/10/04 09:50:39;;;;;;;13.32;4.72;;;15.60;99.90;;;;;;5103507;27;20059;-77
2023/10/04 09:53:25;;;;;;;12.27;5.18;;;15.80;99.90;;;;;;5088309;27;20066;-77
2023/10/04 09:56:12;;;;;;;12.25;5.25;;;15.80;99.90;;;;;;5061619;28;20040;-77
2023/10/04 09:58:57;;;;;;;11.75;6.15;;;15.80;99.90;;;;;;5099146;28;20031;-77
2023/10/04 10:01:43;;;;;;;9.75;5.25;;;15.80;99.90;;;;;;5069864;27;20328;-77
2023/10/04 10:04:31;;;;;;;13.43;5.35;;;15.70;99.90;;;;;;5085228;28;20067;-77
2023/10/04 10:07:21;;;;;;;16.98;5.20;;;15.70;99.90;;;;;;5083290;27;20168;-77
2023/10/04 10:10:12;;;;;;;13.27;5.80;;;15.70;99.90;;;;;;5093479;28;20038;-77
2023/10/04 10:12:59;;;;;;;10.13;5.72;;;15.60;99.90;;;;;;5080785;28;20490;-77
2023/10/04 10:15:46;;;;;;;12.05;5.00;;;15.60;99.90;;;;;;5059852;28;20113;-77
2023/10/04 10:18:32;;;;;;;11.43;5.30;;;15.60;99.90;;;;;;5085630;28;20136;-77
2023/10/04 10:21:18;;;;;;;11.55;5.13;;;15.50;99.90;;;;;;5072451;27;20475;-77
2023/10/04 10:24:09;;;;;;;13.35;4.90;;;15.40;99.90;;;;;;5060791;28;20048;-77
2023/10/04 10:27:02;;;;;;;12.10;4.80;;;15.50;99.90;;;;;;5082418;27;20062;-77
2023/10/04 10:29:48;;;;;;;13.15;5.53;;;15.40;99.90;;;;;;5078830;28;20040;-77
2023/10/04 10:32:34;;;;;;;12.38;5.60;;;15.50;99.90;;;;;;5065407;28;20035;-77
2023/10/04 10:35:48;;;;;;;11.43;4.63;;;15.60;99.90;;;;;;5072570;27;20151;-77
2023/10/04 10:38:40;;;;;;;14.43;4.60;;;15.70;99.90;;;;;;5109775;27;20122;-77
2023/10/04 10:41:33;;;;;;;13.27;4.50;;;15.80;99.90;;;;;;5101641;27;20055;-77
2023/10/04 10:44:20;;;;;;;8.50;4.20;;;15.90;99.90;;;;;;5102404;27;20499;-77
2023/10/04 10:47:25;;;;;;;9.23;4.00;;;16.00;99.90;;;;;;5084572;27;20051;-77
2023/10/04 10:50:35;;;;;;;9.05;3.88;;;16.30;99.90;;;;;;5083554;28;20046;-77
2023/10/04 10:53:21;;;;;;;11.07;4.30;;;16.70;99.90;;;;;;5081262;28;20046;-77
2023/10/04 10:56:07;;;;;;;13.30;3.90;;;16.80;99.90;;;;;;5067101;28;20111;-77
2023/10/04 10:58:53;;;;;;;10.93;4.45;;;16.80;99.90;;;;;;5088351;27;20036;-77
2023/10/04 11:01:39;;;;;;;8.25;3.88;;;16.70;99.90;;;;;;5085612;28;20568;-77
2023/10/04 11:04:25;;;;;;;10.68;3.80;;;16.40;99.90;;;;;;5098897;27;20069;-77
2023/10/04 11:07:11;;;;;;;11.05;3.75;;;16.40;99.90;;;;;;5102513;27;20054;-77
2023/10/04 11:09:58;;;;;;;10.52;3.80;;;16.40;99.90;;;;;;5093726;28;20073;-77
2023/10/04 11:12:44;;;;;;;12.18;4.63;;;16.30;99.90;;;;;;5077026;27;20079;-77
2023/10/04 11:15:30;;;;;;;11.15;4.00;;;16.20;99.90;;;;;;5066815;28;20074;-74
2023/10/04 11:18:16;;;;;;;7.53;3.80;;;16.20;99.90;;;;;;5098609;27;20483;-77
2023/10/04 11:21:06;;;;;;;10.05;4.28;;;16.10;99.90;;;;;;5083040;28;20043;-77
2023/10/04 11:23:52;;;;;;;13.95;4.68;;;16.30;99.90;;;;;;5082414;28;20133;-77
2023/10/04 11:26:42;;;;;;;11.20;4.38;;;16.60;99.90;;;;;;5076755;28;20357;-77
2023/10/04 11:29:29;;;;;;;10.27;4.60;;;16.90;99.90;;;;;;5080487;28;20100;-77
2023/10/04 11:32:15;;;;;;;13.85;4.60;;;16.90;99.90;;;;;;5084008;27;20058;-77
2023/10/04 11:35:08;;;;;;;12.20;4.30;;;16.80;99.90;;;;;;5082994;28;20039;-77
2023/10/04 11:37:56;;;;;;;12.02;4.43;;;16.80;99.90;;;;;;5081288;28;20426;-77
2023/10/04 11:40:47;;;;;;;10.07;4.53;;;16.80;99.90;;;;;;5063817;28;20109;-77
2023/10/04 11:43:33;;;;;;;12.93;4.45;;;16.60;99.90;;;;;;5082802;28;20044;-77
2023/10/04 11:46:21;;;;;;;14.10;4.68;;;16.40;99.90;;;;;;5089051;28;20459;-77
2023/10/04 11:49:14;;;;;;;9.75;4.13;;;16.40;99.90;;;;;;5083243;28;20142;-77
2023/10/04 11:52:06;;;;;;;13.98;4.72;;;16.30;99.90;;;;;;5059631;28;20035;-77
2023/10/04 11:54:53;;;;;;;14.50;4.95;;;16.30;99.90;;;;;;5063390;28;20048;-77
2023/10/04 11:57:39;;;;;;;11.38;4.60;;;16.30;99.90;;;;;;5084802;28;20062;-77
2023/10/04 12:00:26;;;;;;;11.68;4.50;;;16.10;99.90;;;;;;5057330;28;20040;-77
2023/10/04 12:03:12;;;;;;;13.18;4.80;;;16.10;99.90;;;;;;5111053;28;20531;-77
2023/10/04 12:05:59;;;;;;;10.48;4.43;;;16.10;99.90;;;;;;5074711;28;20048;-77
2023/10/04 12:08:45;;;;;;;12.27;4.22;;;16.10;99.90;;;;;;5079244;28;20043;-77
2023/10/04 12:11:35;;;;;;;12.10;4.35;;;16.20;99.90;;;;;;5079975;28;20048;-77
2023/10/04 12:14:22;;;;;;;10.68;4.00;;;16.60;99.90;;;;;;5075790;28;20127;-77
2023/10/04 12:17:08;;;;;;;16.43;4.87;;;17.10;99.90;;;;;;5065439;28;20119;-77
2023/10/04 12:19:55;;;;;;;12.73;4.03;;;17.30;99.90;;;;;;5081360;28;20875;-77
2023/10/04 12:22:44;;;;;;;10.55;4.30;;;17.10;99.90;;;;;;5077585;28;20409;-77
2023/10/04 12:25:31;;;;;;;11.63;4.35;;;16.90;99.90;;;;;;5076808;28;20468;-77
2023/10/04 12:28:19;;;;;;;14.63;3.95;;;16.80;99.90;;;;;;5081601;28;20524;-77
2023/10/04 12:31:07;;;;;;;11.20;4.25;;;16.80;99.90;;;;;;5078090;28;20380;-78
2023/10/04 12:33:55;;;;;;;10.48;4.00;;;17.10;99.90;;;;;;5082026;28;20048;-77
2023/10/04 12:36:41;;;;;;;9.73;4.40;;;17.00;99.90;;;;;;5074985;27;20043;-77
2023/10/04 12:39:28;;;;;;;10.52;3.80;;;16.90;99.90;;;;;;5057455;28;20122;-77
2023/10/04 12:42:15;;;;;;;11.90;4.22;;;17.30;99.90;;;;;;5091851;27;20040;-79
2023/10/04 12:45:01;;;;;;;12.50;4.28;;;17.50;99.90;;;;;;5097035;27;20122;-77
2023/10/04 12:47:47;;;;;;;10.48;3.70;;;17.40;99.40;;;;;;5099517;28;20073;-77
2023/10/04 12:50:35;;;;;;;10.82;3.90;;;17.50;99.90;;;;;;5073923;27;20518;-77
2023/10/04 12:53:22;;;;;;;9.68;3.67;;;17.70;99.90;;;;;;5080112;28;20044;-77
2023/10/04 12:56:11;;;;;;;9.45;3.78;;;17.40;99.50;;;;;;5068000;28;20041;-77
2023/10/04 12:58:57;;;;;;;11.13;3.95;;;17.60;98.90;;;;;;5062807;27;20036;-77
2023/10/04 13:01:45;;;;;;;12.43;4.13;;;17.60;99.00;;;;;;5072232;28;20465;-77
2023/10/04 13:04:31;;;;;;;8.98;3.60;;;17.40;98.90;;;;;;5101695;27;20436;-77
2023/10/04 13:07:17;;;;;;;11.43;3.45;;;17.40;99.30;;;;;;5080218;28;20048;-77
2023/10/04 13:10:09;;;;;;;9.73;3.38;;;17.80;99.10;;;;;;5085084;27;20207;-77
2023/10/04 13:12:55;;;;;;;10.07;3.83;;;18.00;98.40;;;;;;5077896;28;20067;-77
2023/10/04 13:15:42;;;;;;;12.45;3.75;;;18.30;98.10;;;;;;5064582;28;20515;-77
2023/10/04 13:18:28;;;;;;;11.25;3.67;;;18.40;97.40;;;;;;5079525;27;20536;-76
2023/10/04 13:21:15;;;;;;;9.55;3.63;;;18.40;96.70;;;;;;5085614;28;20080;-77
2023/10/04 13:24:01;;;;;;;9.67;3.30;;;18.50;96.40;;;;;;5085463;27;20061;-77
2023/10/04 13:26:48;;;;;;;8.98;3.30;;;18.20;96.70;;;;;;5066248;28;20393;-75
2023/10/04 13:29:34;;;;;;;10.77;3.85;;;18.10;96.70;;;;;;5099346;27;20081;-75
2023/10/04 13:32:21;;;;;;;10.88;3.40;;;18.10;97.40;;;;;;5077441;27;20476;-75
2023/10/04 13:35:07;;;;;;;9.77;3.40;;;18.00;97.60;;;;;;5099625;28;20094;-75
2023/10/04 13:37:53;;;;;;;9.75;3.38;;;17.60;97.20;;;;;;5086068;27;20042;-75
2023/10/04 13:40:39;;;;;;;10.02;3.60;;;17.50;97.60;;;;;;5079830;28;20043;-77
2023/10/04 13:43:25;;;;;;;8.95;3.42;;;17.40;98.10;;;;;;5069936;28;20126;-77
2023/10/04 13:46:11;;;;;;;11.60;3.47;;;17.30;98.40;;;;;;5090829;27;20043;-77
2023/10/04 13:48:58;;;;;;;14.07;3.88;;;17.30;98.80;;;;;;5067447;28;20044;-77
2023/10/04 13:51:44;;;;;;;9.67;3.77;;;17.30;99.00;;;;;;5071323;27;20047;-77
2023/10/04 13:54:31;;;;;;;9.52;3.53;;;17.20;99.10;;;;;;5084521;28;20670;-77
2023/10/04 13:57:18;;;;;;;13.23;4.32;;;17.10;99.40;;;;;;5068415;27;20036;-77
2023/10/04 14:00:21;;;;;;;10.32;3.75;;;17.10;99.00;;;;;;5078821;27;20057;-77
2023/10/04 14:03:09;;;;;;;15.02;4.00;;;17.00;99.50;;;;;;5097940;27;20468;-77
2023/10/04 14:06:00;;;;;;;11.75;4.45;;;16.90;99.70;;;;;;5075961;27;20642;-77
2023/10/04 14:08:46;;;;;;;11.70;3.80;;;16.90;99.80;;;;;;5099768;28;20460;-77
2023/10/04 14:11:32;;;;;;;11.88;3.70;;;16.80;99.60;;;;;;5074413;27;20108;-77
2023/10/04 14:14:19;;;;;;;13.80;4.57;;;16.80;99.80;;;;;;5064436;28;20044;-77
2023/10/04 14:17:07;;;;;;;11.43;3.42;;;16.70;99.90;;;;;;5073410;27;20044;-77
2023/10/04 14:19:53;;;;;;;8.88;3.30;;;16.70;99.90;;;;;;5079985;28;20132;-77
2023/10/04 14:22:40;;;;;;;8.07;3.40;;;16.60;99.90;;;;;;5065439;28;20040;-77